Time;durP1;ratioP1;P1;durP2;ratioP2;P2;SDS_P1;SDS_P2;PMS_P1;PMS_P2;Temp;Humidity;BMP_temperature;BMP_pressure;BME280_temperature;BME280_humidity;BME280_pressure;Samples;Min_cycle;Max_cycle;Signal;HPM_P1;HPM_P2
2022/05/30 00:01:46;;;;;;;2.93;2.00;;;7.10;79.10;;;;;;5049762;28;20220;-60
2022/05/30 00:04:13;;;;;;;2.57;2.37;;;7.00;80.50;;;;;;5042646;28;20203;-59
2022/05/30 00:06:38;;;;;;;4.87;2.40;;;7.00;81.50;;;;;;5057545;28;20175;-59
2022/05/30 00:09:04;;;;;;;4.03;2.30;;;6.90;82.30;;;;;;5050396;28;20594;-60
2022/05/30 00:11:30;;;;;;;4.33;2.53;;;6.90;85.50;;;;;;5046939;28;20254;-60
2022/05/30 00:13:56;;;;;;;2.60;2.40;;;6.90;87.00;;;;;;5040009;28;20715;-60
2022/05/30 00:16:23;;;;;;;2.40;2.20;;;6.80;88.00;;;;;;5056596;28;20508;-60
2022/05/30 00:18:49;;;;;;;3.87;2.10;;;6.80;89.30;;;;;;5059219;28;20552;-60
2022/05/30 00:21:23;;;;;;;2.83;2.43;;;6.80;88.80;;;;;;5046880;28;20432;-61
2022/05/30 00:23:49;;;;;;;2.93;2.33;;;6.80;87.90;;;;;;5044063;28;20456;-61
2022/05/30 00:26:15;;;;;;;2.30;2.10;;;6.70;86.80;;;;;;5039131;28;20426;-60
2022/05/30 00:28:40;;;;;;;3.60;2.33;;;6.70;86.60;;;;;;5045742;28;20515;-61
2022/05/30 00:31:14;;;;;;;8.60;2.50;;;6.60;86.80;;;;;;5051596;28;20519;-61
2022/05/30 00:33:42;;;;;;;2.60;2.40;;;6.60;90.20;;;;;;5055131;28;20274;-60
2022/05/30 00:36:08;;;;;;;3.37;2.00;;;6.60;90.50;;;;;;5046933;28;20873;-60
2022/05/30 00:38:34;;;;;;;4.53;2.00;;;6.50;90.00;;;;;;5047985;28;20456;-60
2022/05/30 00:40:59;;;;;;;2.83;2.20;;;6.50;90.00;;;;;;5046305;28;20429;-60
2022/05/30 00:43:32;;;;;;;4.30;2.50;;;6.40;91.10;;;;;;5044978;28;20199;-59
2022/05/30 00:46:01;;;;;;;2.87;2.63;;;6.40;90.80;;;;;;5041682;28;20174;-60
2022/05/30 00:48:41;;;;;;;8.33;2.90;;;6.40;91.00;;;;;;5049967;28;21054;-61
2022/05/30 00:51:11;;;;;;;4.03;2.83;;;6.30;91.00;;;;;;5037468;28;20433;-60
2022/05/30 00:53:38;;;;;;;3.43;2.50;;;6.30;91.60;;;;;;5036452;28;20516;-60
2022/05/30 00:56:05;;;;;;;3.17;2.13;;;6.20;92.10;;;;;;5054927;28;20961;-60
2022/05/30 00:58:35;;;;;;;2.27;2.10;;;6.20;92.90;;;;;;5043969;28;20507;-60
2022/05/30 01:01:01;;;;;;;4.40;2.77;;;6.10;93.30;;;;;;5039829;28;20433;-59
2022/05/30 01:08:55;;;;;;;4.80;2.77;;;5.90;95.90;;;;;;5043000;28;20460;-60
2022/05/30 01:11:21;;;;;;;3.43;2.40;;;5.90;96.10;;;;;;5051285;28;20438;-60
2022/05/30 01:13:47;;;;;;;3.23;2.37;;;5.90;95.50;;;;;;5048313;28;20206;-60
2022/05/30 01:16:12;;;;;;;2.93;2.47;;;5.90;95.30;;;;;;5040278;28;20814;-59
2022/05/30 01:18:43;;;;;;;4.53;3.03;;;5.90;95.20;;;;;;5036758;28;20188;-60
2022/05/30 01:21:55;;;;;;;2.60;2.40;;;5.80;95.10;;;;;;5049236;28;20190;-60
2022/05/30 01:24:40;;;;;;;2.77;2.23;;;5.80;95.60;;;;;;4991786;28;20981;-60
2022/05/30 01:27:33;;;;;;;3.63;2.43;;;5.80;95.30;;;;;;5037557;28;20417;-60
2022/05/30 01:30:04;;;;;;;5.10;2.20;;;5.80;95.20;;;;;;5036476;28;20542;-61
2022/05/30 01:32:30;;;;;;;6.43;2.83;;;5.80;94.80;;;;;;5050204;28;20449;-60
2022/05/30 01:34:55;;;;;;;2.43;2.23;;;5.70;95.10;;;;;;5049445;28;20421;-60
2022/05/30 01:37:23;;;;;;;3.10;2.80;;;5.70;95.60;;;;;;5058861;28;20201;-59
2022/05/30 01:39:49;;;;;;;2.53;2.33;;;5.70;95.40;;;;;;5040865;28;20175;-60
2022/05/30 01:42:16;;;;;;;2.53;2.30;;;5.70;95.10;;;;;;5050094;28;21082;-60
2022/05/30 01:44:42;;;;;;;2.47;2.27;;;5.70;94.80;;;;;;5053089;28;20430;-60
2022/05/30 01:47:08;;;;;;;4.93;2.20;;;5.70;94.40;;;;;;5046402;28;20457;-60
2022/05/30 01:49:33;;;;;;;2.53;2.33;;;5.70;93.70;;;;;;5040438;28;20880;-60
2022/05/30 01:51:59;;;;;;;4.87;2.83;;;5.60;93.50;;;;;;5042889;28;20183;-60
2022/05/30 01:54:25;;;;;;;3.97;2.40;;;5.60;93.70;;;;;;5029081;28;20453;-60
2022/05/30 01:56:51;;;;;;;5.27;2.50;;;5.50;93.80;;;;;;5041786;28;20269;-60
2022/05/30 01:59:16;;;;;;;3.33;2.70;;;5.50;94.00;;;;;;5045402;28;20183;-60
2022/05/30 02:01:45;;;;;;;5.50;2.40;;;5.50;94.00;;;;;;5051566;28;20540;-61
2022/05/30 02:04:11;;;;;;;4.40;2.57;;;5.40;94.90;;;;;;5044116;28;20195;-60
2022/05/30 02:06:37;;;;;;;5.47;2.40;;;5.40;94.80;;;;;;5041739;28;20482;-60
2022/05/30 02:09:04;;;;;;;3.10;2.40;;;5.30;95.70;;;;;;5058996;28;20492;-60
2022/05/30 02:11:30;;;;;;;2.70;2.40;;;5.30;96.50;;;;;;5050258;28;20207;-60
2022/05/30 02:13:56;;;;;;;5.20;2.63;;;5.30;95.60;;;;;;5054878;28;20458;-60
2022/05/30 02:19:06;;;;;;;3.63;2.70;;;5.20;97.20;;;;;;5049401;28;20713;-60
2022/05/30 02:21:34;;;;;;;4.70;2.77;;;5.20;98.20;;;;;;5056193;28;20521;-59
2022/05/30 02:24:00;;;;;;;3.00;2.70;;;5.20;98.00;;;;;;5050953;28;20967;-60
2022/05/30 02:26:26;;;;;;;5.23;2.60;;;5.20;97.90;;;;;;5050952;28;20460;-61
2022/05/30 02:28:52;;;;;;;3.83;2.37;;;5.20;97.70;;;;;;5044353;28;20474;-60
2022/05/30 02:31:18;;;;;;;2.80;2.57;;;5.20;97.80;;;;;;5045310;28;20181;-60
2022/05/30 02:36:39;;;;;;;7.93;2.43;;;5.20;97.30;;;;;;5051139;28;20713;-60
2022/05/30 02:39:26;;;;;;;3.87;2.73;;;5.10;97.10;;;;;;5041363;28;20429;-60
2022/05/30 02:41:52;;;;;;;3.13;2.90;;;5.10;97.00;;;;;;5050903;28;20440;-60
2022/05/30 02:44:20;;;;;;;2.80;2.60;;;5.10;96.60;;;;;;5047581;28;20528;-60
2022/05/30 02:46:47;;;;;;;2.67;2.47;;;5.10;97.10;;;;;;5038237;28;20444;-59
2022/05/30 02:49:13;;;;;;;5.73;2.40;;;5.10;96.80;;;;;;5043212;28;20600;-59
2022/05/30 02:51:39;;;;;;;4.63;2.70;;;5.10;97.30;;;;;;5043506;28;20528;-60
2022/05/30 02:54:04;;;;;;;3.80;2.70;;;5.00;97.30;;;;;;5054478;28;20203;-59
2022/05/30 02:56:31;;;;;;;5.87;2.73;;;5.00;97.70;;;;;;5052008;28;20441;-60
2022/05/30 02:59:01;;;;;;;2.50;2.30;;;5.00;97.70;;;;;;5047692;28;20187;-60
2022/05/30 03:01:27;;;;;;;4.30;2.53;;;5.00;97.60;;;;;;5043776;28;21047;-60
2022/05/30 03:03:53;;;;;;;4.07;2.70;;;5.00;97.60;;;;;;5037526;28;20449;-59
2022/05/30 03:06:19;;;;;;;3.60;2.90;;;4.90;97.30;;;;;;5042937;28;20512;-59
2022/05/30 03:08:45;;;;;;;2.93;2.73;;;4.90;97.00;;;;;;5047143;28;20441;-60
2022/05/30 03:11:11;;;;;;;2.33;2.23;;;4.80;96.60;;;;;;5047593;28;20444;-60
2022/05/30 03:13:37;;;;;;;3.40;2.30;;;4.80;96.90;;;;;;5046913;28;20237;-60
2022/05/30 03:16:03;;;;;;;2.87;2.50;;;4.70;96.70;;;;;;5058763;28;20429;-59
2022/05/30 03:18:29;;;;;;;3.07;2.70;;;4.70;97.30;;;;;;5042594;28;20450;-61
2022/05/30 03:20:55;;;;;;;6.10;3.00;;;4.60;97.60;;;;;;5038086;28;20522;-60
2022/05/30 03:23:21;;;;;;;3.53;2.70;;;4.60;98.50;;;;;;5050440;28;20544;-60
2022/05/30 03:25:47;;;;;;;4.77;3.00;;;4.60;99.50;;;;;;5040327;28;20967;-60
2022/05/30 03:28:13;;;;;;;3.73;2.83;;;4.60;99.70;;;;;;5044703;28;20433;-60
2022/05/30 03:30:39;;;;;;;2.93;2.60;;;4.60;99.20;;;;;;5044962;28;20214;-60
2022/05/30 03:33:06;;;;;;;2.90;2.70;;;4.60;99.20;;;;;;5052053;28;20506;-59
2022/05/30 03:35:33;;;;;;;3.10;2.80;;;4.60;99.20;;;;;;5038089;28;20276;-61
2022/05/30 03:37:58;;;;;;;2.47;2.27;;;4.60;99.20;;;;;;5042285;28;20425;-59
2022/05/30 03:40:25;;;;;;;4.80;3.00;;;4.60;99.00;;;;;;5047092;28;20440;-59
2022/05/30 03:42:51;;;;;;;4.60;3.00;;;4.60;99.00;;;;;;5042368;28;20253;-59
2022/05/30 03:45:17;;;;;;;4.47;3.00;;;4.50;99.10;;;;;;5046514;28;20957;-59
2022/05/30 03:47:44;;;;;;;3.63;2.60;;;4.50;99.30;;;;;;5031856;28;20786;-59
2022/05/30 03:50:13;;;;;;;3.03;2.73;;;4.50;99.40;;;;;;5039558;28;20245;-59
2022/05/30 03:52:39;;;;;;;4.00;2.90;;;4.50;99.40;;;;;;5044828;28;20485;-59
2022/05/30 03:55:11;;;;;;;3.33;2.50;;;4.50;99.50;;;;;;5038974;28;20439;-60
2022/05/30 03:57:39;;;;;;;2.60;2.40;;;4.50;99.20;;;;;;5042352;28;20217;-59
2022/05/30 04:00:32;;;;;;;3.73;2.93;;;4.50;99.10;;;;;;5043448;28;20796;-59
2022/05/30 04:02:59;;;;;;;3.00;2.43;;;4.50;99.60;;;;;;5024971;28;20493;-60
2022/05/30 04:05:26;;;;;;;3.07;2.70;;;4.50;99.90;;;;;;5032826;28;20441;-56
2022/05/30 04:07:51;;;;;;;4.17;3.20;;;4.40;99.70;;;;;;5033161;28;20448;-55
2022/05/30 04:10:17;;;;;;;2.93;2.63;;;4.50;99.90;;;;;;5036975;28;20465;-53
2022/05/30 04:12:43;;;;;;;2.43;2.23;;;4.50;99.60;;;;;;5037542;28;20289;-58
2022/05/30 04:15:20;;;;;;;2.43;2.23;;;4.50;99.30;;;;;;5036366;28;20433;-60
2022/05/30 04:17:46;;;;;;;2.70;2.50;;;4.50;98.90;;;;;;5035610;28;20183;-60
2022/05/30 04:20:12;;;;;;;3.50;2.93;;;4.50;98.50;;;;;;5042993;28;20463;-61
2022/05/30 04:22:38;;;;;;;6.90;3.43;;;4.50;98.50;;;;;;5035074;28;20209;-61
2022/05/30 04:25:04;;;;;;;5.00;2.83;;;4.50;99.40;;;;;;5041674;28;20441;-60
2022/05/30 04:27:30;;;;;;;4.40;3.10;;;4.50;99.60;;;;;;5037649;28;20186;-61
2022/05/30 04:29:55;;;;;;;3.33;3.03;;;4.50;99.60;;;;;;5028419;28;20604;-60
2022/05/30 04:32:22;;;;;;;5.37;3.37;;;4.60;99.10;;;;;;5032360;28;20213;-60
2022/05/30 04:34:48;;;;;;;4.00;3.07;;;4.60;99.90;;;;;;5036749;28;20178;-61
2022/05/30 04:37:14;;;;;;;4.60;3.10;;;4.70;99.90;;;;;;5043328;28;20425;-60
2022/05/30 04:39:40;;;;;;;3.20;2.90;;;4.80;99.90;;;;;;5043944;28;20464;-60
2022/05/30 04:42:06;;;;;;;5.30;4.80;;;4.90;99.90;;;;;;5030586;28;20186;-60
2022/05/30 04:44:32;;;;;;;8.13;4.30;;;5.00;99.50;;;;;;5035384;28;20438;-59
2022/05/30 04:46:58;;;;;;;6.93;4.50;;;5.10;98.20;;;;;;5039727;28;20188;-59
2022/05/30 04:49:25;;;;;;;3.50;3.20;;;5.20;97.30;;;;;;5033873;28;20469;-59
2022/05/30 04:51:51;;;;;;;5.50;3.40;;;5.20;97.20;;;;;;5032386;28;20521;-59
2022/05/30 04:54:18;;;;;;;8.37;4.20;;;5.30;96.70;;;;;;5034986;28;20457;-59
2022/05/30 04:56:43;;;;;;;7.90;3.50;;;5.40;97.20;;;;;;5033177;28;20439;-60
2022/05/30 04:59:09;;;;;;;4.83;3.70;;;5.40;98.10;;;;;;5037129;28;20444;-61
2022/05/30 05:01:37;;;;;;;20.47;3.40;;;5.50;97.10;;;;;;5040866;28;20188;-60
2022/05/30 05:04:04;;;;;;;8.53;4.23;;;5.50;98.30;;;;;;5038305;28;20464;-60
2022/05/30 05:06:30;;;;;;;7.93;3.83;;;5.60;96.90;;;;;;5047469;28;20469;-61
2022/05/30 05:09:23;;;;;;;4.90;3.70;;;5.70;96.00;;;;;;5046006;28;20434;-60
2022/05/30 05:11:49;;;;;;;9.20;4.27;;;5.80;96.30;;;;;;5038327;28;20447;-60
2022/05/30 05:14:18;;;;;;;12.47;4.57;;;5.90;95.90;;;;;;5045023;28;21025;-61
2022/05/30 05:16:43;;;;;;;12.20;4.20;;;5.90;95.00;;;;;;5050279;28;20306;-61
2022/05/30 05:19:09;;;;;;;9.83;4.77;;;6.00;92.50;;;;;;5040159;28;20508;-61
2022/05/30 05:21:38;;;;;;;11.07;5.33;;;6.00;93.00;;;;;;5041750;28;20186;-60
2022/05/30 05:24:06;;;;;;;8.57;4.33;;;6.00;93.50;;;;;;5041037;28;21073;-61
2022/05/30 05:26:32;;;;;;;11.83;4.50;;;6.00;93.80;;;;;;5038625;28;20555;-62
2022/05/30 05:28:57;;;;;;;11.10;4.23;;;6.10;94.30;;;;;;5039899;28;20953;-60
2022/05/30 05:31:33;;;;;;;12.20;4.63;;;6.20;94.60;;;;;;5044430;28;20190;-61
2022/05/30 05:33:59;;;;;;;8.03;4.07;;;6.30;95.00;;;;;;5045458;28;20832;-60
2022/05/30 05:36:28;;;;;;;4.67;3.70;;;6.40;93.70;;;;;;5040892;28;20422;-61
2022/05/30 05:38:54;;;;;;;4.80;3.80;;;6.40;94.30;;;;;;5040752;28;20515;-61
2022/05/30 05:41:21;;;;;;;5.93;3.70;;;6.50;94.00;;;;;;5050015;28;20890;-61
2022/05/30 05:43:47;;;;;;;6.20;3.93;;;6.60;92.70;;;;;;5044742;28;20195;-60
2022/05/30 05:46:15;;;;;;;7.20;4.13;;;6.70;93.10;;;;;;5038853;28;20513;-61
2022/05/30 05:48:41;;;;;;;5.33;3.83;;;6.70;93.40;;;;;;5039428;28;20949;-60
2022/05/30 05:51:06;;;;;;;7.90;4.43;;;6.80;93.60;;;;;;5042341;28;20453;-60
2022/05/30 05:53:32;;;;;;;11.13;4.57;;;6.90;92.00;;;;;;5038698;28;20187;-61
2022/05/30 05:55:58;;;;;;;8.00;5.07;;;6.90;90.80;;;;;;5040030;28;20665;-61
2022/05/30 05:58:24;;;;;;;16.43;3.90;;;6.90;91.50;;;;;;5045518;28;20186;-61
2022/05/30 06:00:49;;;;;;;8.17;5.50;;;6.90;92.20;;;;;;5035048;28;20182;-61
2022/05/30 06:03:15;;;;;;;7.93;4.80;;;7.00;93.10;;;;;;5039015;28;20282;-61
2022/05/30 06:05:41;;;;;;;11.10;3.83;;;7.00;92.80;;;;;;5029342;28;20180;-60
2022/05/30 06:08:07;;;;;;;4.40;4.00;;;7.10;93.30;;;;;;5033459;28;20184;-59
2022/05/30 06:11:04;;;;;;;11.70;6.63;;;7.30;94.10;;;;;;5038211;28;20476;-60
2022/05/30 06:13:19;;;;;;;8.57;5.77;;;7.40;93.40;;;;;;5036413;28;20511;-61
2022/05/30 06:15:44;;;;;;;10.83;6.20;;;7.60;92.20;;;;;;5033711;28;20429;-60
2022/05/30 06:18:10;;;;;;;10.17;6.83;;;7.70;90.00;;;;;;5055553;28;20244;-59
2022/05/30 06:20:35;;;;;;;5.40;4.23;;;7.90;90.50;;;;;;5042355;28;20258;-56
2022/05/30 06:23:01;;;;;;;5.43;4.63;;;8.00;88.50;;;;;;5040625;28;20231;-53
2022/05/30 06:25:27;;;;;;;6.00;4.03;;;8.20;86.20;;;;;;5037281;28;20180;-61
2022/05/30 06:27:52;;;;;;;8.23;3.70;;;8.30;84.70;;;;;;5038375;28;20195;-60
2022/05/30 06:30:18;;;;;;;5.27;3.90;;;8.50;82.60;;;;;;5036148;28;20261;-61
2022/05/30 06:32:43;;;;;;;8.73;4.33;;;8.60;82.60;;;;;;5042572;28;20277;-60
2022/05/30 06:35:09;;;;;;;7.60;4.03;;;8.80;83.70;;;;;;5047150;28;20183;-61
2022/05/30 06:37:35;;;;;;;6.40;3.63;;;9.00;81.30;;;;;;5041199;28;20642;-60
2022/05/30 06:40:01;;;;;;;5.70;3.97;;;9.10;79.40;;;;;;5029810;28;20190;-60
2022/05/30 06:42:26;;;;;;;6.20;3.53;;;9.30;77.40;;;;;;5044594;28;20179;-61
2022/05/30 06:44:52;;;;;;;6.17;3.83;;;9.40;75.40;;;;;;5042250;28;20187;-61
2022/05/30 06:47:18;;;;;;;7.87;4.20;;;9.60;73.10;;;;;;5040899;28;20179;-61
2022/05/30 06:49:43;;;;;;;13.27;4.60;;;9.70;70.30;;;;;;5048110;28;20269;-61
2022/05/30 06:52:11;;;;;;;7.70;4.10;;;9.80;69.90;;;;;;5047627;28;20221;-59
2022/05/30 06:54:37;;;;;;;12.00;4.37;;;10.00;69.20;;;;;;5036280;28;20226;-61
2022/05/30 06:59:48;;;;;;;7.80;3.00;;;10.40;66.50;;;;;;5049955;28;20189;-61
2022/05/30 07:02:15;;;;;;;3.90;2.13;;;10.60;64.80;;;;;;5044165;28;20524;-60
2022/05/30 07:04:41;;;;;;;4.93;2.43;;;10.70;63.00;;;;;;5045455;28;20236;-61
2022/05/30 07:07:10;;;;;;;5.07;2.20;;;10.90;60.20;;;;;;5046002;28;20430;-61
2022/05/30 07:09:37;;;;;;;5.07;2.50;;;11.00;59.20;;;;;;5044615;28;20214;-60
2022/05/30 07:12:03;;;;;;;4.53;2.40;;;11.10;58.80;;;;;;5042384;28;20929;-60
2022/05/30 07:14:29;;;;;;;6.30;2.17;;;11.20;58.40;;;;;;5044954;28;20449;-60
2022/05/30 07:16:54;;;;;;;2.97;1.80;;;11.30;58.00;;;;;;5046647;28;20521;-61
2022/05/30 07:19:20;;;;;;;6.10;2.70;;;11.40;57.70;;;;;;5044812;28;20225;-61
2022/05/30 07:21:46;;;;;;;4.00;2.33;;;11.50;57.60;;;;;;5042496;28;20191;-60
2022/05/30 07:24:12;;;;;;;2.73;2.00;;;11.60;57.00;;;;;;5041079;28;20225;-60
2022/05/30 07:26:39;;;;;;;3.57;1.90;;;11.70;56.30;;;;;;5044552;28;20509;-61
2022/05/30 07:29:05;;;;;;;2.43;2.13;;;11.70;55.60;;;;;;5043741;28;20520;-60
2022/05/30 07:31:31;;;;;;;6.93;2.33;;;11.80;55.40;;;;;;5041147;28;20430;-60
2022/05/30 07:33:57;;;;;;;3.67;1.80;;;11.90;55.20;;;;;;5042033;28;20562;-60
2022/05/30 07:36:31;;;;;;;4.87;2.30;;;12.00;55.20;;;;;;5031144;28;20291;-60
2022/05/30 07:38:56;;;;;;;8.33;2.10;;;12.10;54.20;;;;;;5047077;28;20429;-61
2022/05/30 07:41:25;;;;;;;4.77;1.90;;;12.20;53.20;;;;;;5036166;28;20541;-61
2022/05/30 07:43:51;;;;;;;2.00;1.80;;;12.30;52.50;;;;;;5046609;28;20458;-61
2022/05/30 07:46:18;;;;;;;7.40;2.00;;;12.40;52.40;;;;;;5045351;28;20429;-61
2022/05/30 07:48:45;;;;;;;2.27;1.50;;;12.50;52.10;;;;;;5042558;28;21009;-61
2022/05/30 07:51:13;;;;;;;2.00;1.70;;;12.60;51.10;;;;;;5038508;28;20566;-61
2022/05/30 07:53:41;;;;;;;1.80;1.70;;;12.60;49.80;;;;;;5038734;28;20860;-62
2022/05/30 07:56:10;;;;;;;2.03;1.80;;;12.70;49.70;;;;;;5034914;28;20495;-61
2022/05/30 07:58:36;;;;;;;1.77;1.67;;;12.80;48.70;;;;;;5045303;28;20438;-61
2022/05/30 08:01:03;;;;;;;3.57;1.93;;;12.90;48.40;;;;;;5043991;28;20524;-59
2022/05/30 08:03:29;;;;;;;3.20;1.70;;;12.90;47.80;;;;;;5036231;28;20449;-61
2022/05/30 08:06:06;;;;;;;1.70;1.60;;;13.00;47.80;;;;;;5035059;28;21027;-62
2022/05/30 08:08:32;;;;;;;3.63;2.67;;;13.10;47.60;;;;;;5034628;28;20289;-60
2022/05/30 08:10:57;;;;;;;3.27;2.07;;;13.30;47.50;;;;;;5043690;28;20596;-61
2022/05/30 08:13:23;;;;;;;8.27;2.33;;;13.40;46.90;;;;;;5042069;28;20276;-60
2022/05/30 08:15:49;;;;;;;6.73;1.70;;;13.40;46.90;;;;;;5039852;28;20245;-61
2022/05/30 08:18:17;;;;;;;7.03;2.03;;;13.40;47.00;;;;;;5043150;28;20175;-60
2022/05/30 08:20:43;;;;;;;5.13;1.83;;;13.50;46.90;;;;;;5038966;28;20179;-61
2022/05/30 08:23:09;;;;;;;3.40;2.03;;;13.60;46.70;;;;;;5038535;28;20457;-61
2022/05/30 08:25:36;;;;;;;2.00;1.73;;;13.60;46.10;;;;;;5038944;28;20184;-60
2022/05/30 08:28:01;;;;;;;2.60;1.90;;;13.70;46.80;;;;;;5029600;28;20251;-60
2022/05/30 08:30:27;;;;;;;3.33;2.23;;;13.80;46.30;;;;;;5029094;28;20549;-61
2022/05/30 08:32:53;;;;;;;2.60;1.70;;;13.90;45.90;;;;;;5055426;28;20294;-61
2022/05/30 08:35:19;;;;;;;1.77;1.40;;;13.90;45.30;;;;;;5039930;28;20191;-61
2022/05/30 08:37:46;;;;;;;2.00;1.80;;;14.00;45.00;;;;;;5046423;28;20258;-61
2022/05/30 08:43:42;;;;;;;2.13;1.83;;;14.20;45.00;;;;;;5051713;28;20490;-61
2022/05/30 08:46:25;;;;;;;1.93;1.60;;;14.30;45.40;;;;;;5043991;28;20437;-60
2022/05/30 08:49:13;;;;;;;1.47;1.37;;;14.40;44.80;;;;;;5052652;28;20887;-61
2022/05/30 08:51:59;;;;;;;1.93;1.43;;;14.50;44.40;;;;;;5053470;28;20491;-61
2022/05/30 08:54:28;;;;;;;1.70;1.40;;;14.60;43.90;;;;;;5054751;28;20450;-61
2022/05/30 08:56:57;;;;;;;1.93;1.37;;;14.70;43.50;;;;;;5044614;28;20444;-61
2022/05/30 08:59:29;;;;;;;3.50;1.60;;;14.80;44.60;;;;;;5051053;28;20520;-61
2022/05/30 09:02:13;;;;;;;1.50;1.40;;;14.90;44.20;;;;;;5036255;28;20434;-61
2022/05/30 09:04:54;;;;;;;3.27;1.60;;;15.00;44.00;;;;;;5039724;28;20535;-62
2022/05/30 09:07:26;;;;;;;3.00;1.43;;;15.10;44.10;;;;;;5038784;28;20489;-61
2022/05/30 09:10:07;;;;;;;4.10;1.70;;;15.00;42.10;;;;;;5037951;28;20457;-62
2022/05/30 09:12:48;;;;;;;1.50;1.40;;;14.90;41.90;;;;;;5052425;28;20441;-61
2022/05/30 09:15:54;;;;;;;1.73;1.60;;;14.80;41.10;;;;;;5055755;28;20781;-61
2022/05/30 09:18:36;;;;;;;2.00;1.70;;;14.80;42.20;;;;;;5015521;28;20429;-62
2022/05/30 09:21:02;;;;;;;1.70;1.53;;;14.80;42.80;;;;;;5058956;28;21795;-60
2022/05/30 09:23:28;;;;;;;2.97;1.50;;;14.70;43.20;;;;;;5043160;28;20489;-61
2022/05/30 09:25:56;;;;;;;3.53;1.63;;;14.80;43.40;;;;;;5059875;28;20210;-61
2022/05/30 09:28:36;;;;;;;4.20;2.20;;;14.90;43.30;;;;;;5046336;28;20433;-61
2022/05/30 09:31:28;;;;;;;1.60;1.50;;;14.90;43.30;;;;;;5053402;28;20973;-61
2022/05/30 09:33:58;;;;;;;1.83;1.57;;;14.80;40.00;;;;;;5055525;28;20559;-63
2022/05/30 09:36:29;;;;;;;5.10;1.47;;;14.60;39.60;;;;;;5061084;28;20784;-61
2022/05/30 09:39:14;;;;;;;5.07;1.60;;;14.40;40.70;;;;;;5047605;28;20425;-62
2022/05/30 09:41:40;;;;;;;3.67;1.90;;;14.20;40.70;;;;;;5045487;28;20512;-61
2022/05/30 09:44:18;;;;;;;2.20;1.87;;;14.30;41.40;;;;;;5058817;28;21150;-63
2022/05/30 09:47:13;;;;;;;6.43;2.17;;;14.60;42.70;;;;;;5070266;28;20166;-61
2022/05/30 09:49:42;;;;;;;2.63;1.67;;;15.20;42.70;;;;;;5041337;28;20469;-61
2022/05/30 09:52:27;;;;;;;2.70;1.93;;;15.60;41.10;;;;;;5045779;28;20417;-63
2022/05/30 09:54:54;;;;;;;3.50;1.50;;;15.90;41.30;;;;;;5053930;28;20412;-62
2022/05/30 09:57:25;;;;;;;4.43;1.70;;;16.30;41.40;;;;;;5039745;28;20488;-63
2022/05/30 09:59:54;;;;;;;1.90;1.50;;;16.50;39.00;;;;;;5041801;28;20436;-62
2022/05/30 10:02:31;;;;;;;4.67;2.20;;;16.70;39.30;;;;;;5037522;28;20454;-63
2022/05/30 10:05:05;;;;;;;1.63;1.43;;;16.90;39.80;;;;;;5046819;28;20867;-62
2022/05/30 10:07:33;;;;;;;3.80;1.73;;;17.00;39.70;;;;;;5042494;28;20432;-61
2022/05/30 10:10:12;;;;;;;1.97;1.77;;;16.80;38.60;;;;;;5045463;28;21017;-63
2022/05/30 10:12:51;;;;;;;2.60;1.60;;;16.60;38.30;;;;;;5040009;28;20465;-60
2022/05/30 10:15:34;;;;;;;4.93;1.63;;;16.40;39.90;;;;;;5042054;28;20429;-60
2022/05/30 10:18:17;;;;;;;2.13;1.70;;;16.20;39.60;;;;;;5047994;28;20430;-60
2022/05/30 10:21:14;;;;;;;4.57;1.53;;;16.30;39.80;;;;;;5046847;28;20941;-61
2022/05/30 10:30:36;;;;;;;4.60;1.60;;;17.40;40.00;;;;;;5051301;28;20612;-61
2022/05/30 10:33:12;;;;;;;2.07;1.70;;;17.80;39.80;;;;;;5055925;28;20997;-61
2022/05/30 10:36:03;;;;;;;4.20;1.80;;;18.10;38.00;;;;;;5044584;28;20639;-61
2022/05/30 10:38:50;;;;;;;2.90;1.70;;;18.20;37.80;;;;;;5048069;28;20473;-61
2022/05/30 10:41:41;;;;;;;2.70;1.43;;;18.00;37.10;;;;;;5042178;28;20795;-61
2022/05/30 10:44:14;;;;;;;1.90;1.17;;;17.80;36.90;;;;;;5035925;28;20449;-61
2022/05/30 10:46:47;;;;;;;5.37;1.77;;;17.50;37.10;;;;;;5035874;28;20576;-61
2022/05/30 10:49:16;;;;;;;2.60;1.70;;;17.20;38.00;;;;;;5044177;28;21025;-61
2022/05/30 10:51:56;;;;;;;4.13;1.70;;;17.00;37.00;;;;;;5039385;28;20471;-61
2022/05/30 10:54:32;;;;;;;1.80;1.70;;;16.60;36.10;;;;;;5036123;28;20461;-61
2022/05/30 10:57:35;;;;;;;4.30;1.80;;;16.40;36.30;;;;;;5038454;28;20457;-62
2022/05/30 11:00:04;;;;;;;3.47;1.90;;;16.50;37.20;;;;;;5034527;28;20486;-61
2022/05/30 11:02:48;;;;;;;2.17;1.63;;;16.90;36.80;;;;;;5032684;28;20515;-61
2022/05/30 11:05:43;;;;;;;2.40;1.70;;;17.30;35.20;;;;;;5040514;28;20430;-61
2022/05/30 11:08:27;;;;;;;3.83;1.80;;;17.60;34.10;;;;;;5040998;28;20441;-61
2022/05/30 11:11:06;;;;;;;3.07;1.80;;;17.90;35.50;;;;;;5034360;28;20476;-61
2022/05/30 11:13:34;;;;;;;3.73;1.60;;;18.40;38.20;;;;;;5048655;28;20448;-61
2022/05/30 11:16:17;;;;;;;3.63;1.90;;;18.60;35.30;;;;;;5032913;28;20483;-60
2022/05/30 11:19:17;;;;;;;2.70;1.50;;;18.50;33.10;;;;;;5032033;28;20430;-61
2022/05/30 11:22:05;;;;;;;5.07;1.87;;;18.10;32.50;;;;;;5034505;28;20847;-61
2022/05/30 11:24:33;;;;;;;3.40;1.83;;;17.60;32.40;;;;;;5035745;28;20453;-61
2022/05/30 11:27:13;;;;;;;2.67;1.90;;;17.20;32.10;;;;;;5038564;28;20516;-61
2022/05/30 11:30:03;;;;;;;4.20;1.70;;;16.90;32.90;;;;;;5044452;28;20526;-61
2022/05/30 11:32:52;;;;;;;3.53;1.67;;;16.70;33.50;;;;;;5055282;28;20405;-61
2022/05/30 11:35:43;;;;;;;2.30;1.40;;;16.80;35.10;;;;;;5054354;28;20430;-61
2022/05/30 11:38:29;;;;;;;7.60;1.50;;;17.00;35.70;;;;;;5030900;28;20426;-61
2022/05/30 11:41:09;;;;;;;2.73;1.67;;;16.90;34.20;;;;;;5050788;28;20811;-62
2022/05/30 11:43:59;;;;;;;2.83;1.70;;;16.90;34.30;;;;;;5058111;28;20489;-61
2022/05/30 11:46:43;;;;;;;2.93;1.50;;;17.10;34.10;;;;;;5060430;28;20401;-61
2022/05/30 11:49:39;;;;;;;2.43;1.43;;;17.30;35.10;;;;;;5042400;28;20495;-62
2022/05/30 11:52:20;;;;;;;5.63;1.37;;;17.20;34.90;;;;;;5042712;28;20406;-62
2022/05/30 11:55:04;;;;;;;6.17;2.13;;;17.50;36.10;;;;;;5028865;28;20386;-61
2022/05/30 11:57:39;;;;;;;1.73;1.40;;;18.00;36.80;;;;;;5042999;28;20528;-61
2022/05/30 12:00:32;;;;;;;5.10;2.17;;;18.60;35.60;;;;;;5047275;28;20443;-61
2022/05/30 12:03:04;;;;;;;4.40;1.80;;;19.10;32.90;;;;;;5031809;28;20451;-61
2022/05/30 12:05:39;;;;;;;2.37;1.40;;;19.30;31.70;;;;;;5044031;28;20942;-63
2022/05/30 12:08:10;;;;;;;5.93;1.77;;;19.60;33.30;;;;;;5050735;28;20443;-61
2022/05/30 12:10:54;;;;;;;3.07;1.50;;;19.80;28.70;;;;;;5041843;28;20468;-61
2022/05/30 12:13:41;;;;;;;1.53;1.27;;;19.80;30.20;;;;;;5043344;28;20418;-62
2022/05/30 12:16:11;;;;;;;1.63;1.17;;;19.60;29.10;;;;;;5026545;28;20486;-61
2022/05/30 12:24:40;;;;;;;4.20;1.67;;;18.50;30.80;;;;;;5048187;28;20417;-61
2022/05/30 12:27:07;;;;;;;5.00;1.53;;;18.30;30.50;;;;;;5044074;28;20417;-61
2022/05/30 12:29:39;;;;;;;1.57;1.33;;;18.50;30.20;;;;;;5057648;28;20449;-61
2022/05/30 12:32:16;;;;;;;3.30;1.60;;;19.00;31.10;;;;;;5049227;28;21050;-61
2022/05/30 12:34:57;;;;;;;1.43;1.33;;;19.60;33.40;;;;;;5041320;28;20509;-62
2022/05/30 12:38:02;;;;;;;2.90;1.40;;;20.10;31.90;;;;;;5045573;28;20487;-63
2022/05/30 12:40:27;;;;;;;2.40;1.53;;;20.40;31.30;;;;;;5037066;28;20859;-61
2022/05/30 12:43:23;;;;;;;4.47;1.70;;;20.10;29.00;;;;;;5032551;28;20453;-62
2022/05/30 12:45:54;;;;;;;1.87;1.37;;;20.10;30.40;;;;;;5027071;28;20284;-62
2022/05/30 12:48:44;;;;;;;2.60;1.50;;;20.10;28.10;;;;;;5041993;28;20849;-61
2022/05/30 12:51:35;;;;;;;2.70;1.40;;;20.10;28.10;;;;;;5044436;28;20919;-61
2022/05/30 12:54:01;;;;;;;4.37;1.47;;;19.90;28.10;;;;;;5053716;28;20566;-61
2022/05/30 12:56:39;;;;;;;4.30;1.53;;;19.60;29.30;;;;;;5041271;28;20442;-61
2022/05/30 12:59:11;;;;;;;2.60;1.67;;;19.40;29.00;;;;;;5048107;28;20667;-62
2022/05/30 13:01:42;;;;;;;2.47;1.83;;;19.10;29.30;;;;;;5039256;28;20478;-61
2022/05/30 13:04:26;;;;;;;4.40;2.00;;;18.80;30.00;;;;;;5044319;28;20575;-61
2022/05/30 13:06:57;;;;;;;1.90;1.43;;;18.60;30.70;;;;;;5040505;28;20882;-62
2022/05/30 13:09:37;;;;;;;2.30;1.87;;;18.70;31.70;;;;;;5046551;28;20537;-61
2022/05/30 13:12:12;;;;;;;5.40;1.90;;;19.20;32.10;;;;;;5042230;28;20969;-61
2022/05/30 13:14:40;;;;;;;5.27;1.80;;;19.40;30.50;;;;;;5049725;28;20838;-61
2022/05/30 13:17:14;;;;;;;1.70;1.60;;;19.40;30.20;;;;;;5045040;28;20436;-62
2022/05/30 13:19:43;;;;;;;6.40;1.87;;;19.30;30.00;;;;;;5047563;28;20432;-63
2022/05/30 13:22:09;;;;;;;2.30;1.40;;;19.10;30.00;;;;;;5044883;28;20541;-61
2022/05/30 13:24:38;;;;;;;6.67;1.70;;;18.90;30.00;;;;;;5042465;28;20473;-61
2022/05/30 13:27:04;;;;;;;4.13;1.50;;;18.70;30.50;;;;;;5051635;28;20184;-62
2022/05/30 13:29:36;;;;;;;5.50;1.80;;;18.70;30.80;;;;;;5046358;28;20469;-61
2022/05/30 13:32:05;;;;;;;5.87;2.20;;;18.60;31.70;;;;;;5056070;28;20441;-62
2022/05/30 13:34:32;;;;;;;2.93;1.43;;;19.10;32.10;;;;;;5035320;28;20497;-61
2022/05/30 13:37:00;;;;;;;2.60;2.00;;;19.80;31.90;;;;;;5050320;28;20409;-60
2022/05/30 13:39:26;;;;;;;1.60;1.50;;;20.50;33.10;;;;;;5044703;28;20574;-61
2022/05/30 13:41:52;;;;;;;1.93;1.47;;;21.10;31.10;;;;;;5047162;28;20433;-61